createdAt,value
2018-06-13T00:01:43.045Z,100619.00
2018-06-13T00:04:12.932Z,100614.00
2018-06-13T00:06:42.874Z,100615.00
2018-06-13T00:09:13.473Z,100621.00
2018-06-13T00:11:43.792Z,100620.00
2018-06-13T00:14:13.603Z,100632.00
2018-06-13T00:16:43.729Z,100630.00
2018-06-13T00:19:13.450Z,100622.00
2018-06-13T00:21:43.381Z,100625.00
2018-06-13T00:24:13.643Z,100621.00
2018-06-13T00:26:43.481Z,100623.00
2018-06-13T00:29:13.015Z,100623.00
2018-06-13T00:31:43.356Z,100630.00
2018-06-13T00:40:21.220Z,100627.00
2018-06-13T00:42:51.335Z,100630.00
2018-06-13T00:45:21.206Z,100633.00
2018-06-13T00:47:51.350Z,100636.00
2018-06-13T00:50:21.696Z,100638.00
2018-06-13T00:52:52.299Z,100638.00
2018-06-13T00:55:22.383Z,100636.00
2018-06-13T00:57:52.482Z,100638.00
2018-06-13T01:00:22.742Z,100635.00
2018-06-13T01:02:53.015Z,100635.00
2018-06-13T01:05:23.231Z,100640.00
2018-06-13T01:07:53.325Z,100643.00
2018-06-13T01:10:23.336Z,100642.00
2018-06-13T01:12:53.164Z,100646.00
2018-06-13T01:15:23.085Z,100638.00
2018-06-13T01:17:53.118Z,100641.00
2018-06-13T01:20:23.089Z,100647.00
2018-06-13T01:22:53.162Z,100644.00
2018-06-13T01:25:23.049Z,100646.00
2018-06-13T01:27:52.986Z,100649.00
2018-06-13T01:30:23.299Z,100645.00
2018-06-13T01:32:53.308Z,100648.00
2018-06-13T01:35:23.166Z,100651.00
2018-06-13T01:37:53.354Z,100648.00
2018-06-13T01:40:23.603Z,100650.00
2018-06-13T01:42:53.496Z,100650.00
2018-06-13T01:45:23.540Z,100651.00
2018-06-13T01:47:53.632Z,100647.00
2018-06-13T01:50:23.791Z,100643.00
2018-06-13T01:52:53.915Z,100640.00
2018-06-13T01:55:23.885Z,100643.00
2018-06-13T01:57:53.954Z,100641.00
2018-06-13T02:00:23.765Z,100639.00
2018-06-13T02:02:53.831Z,100641.00
2018-06-13T02:05:23.880Z,100642.00
2018-06-13T02:07:53.894Z,100650.00
2018-06-13T02:10:23.878Z,100651.00
2018-06-13T02:12:53.938Z,100652.00
2018-06-13T02:15:23.964Z,100636.00
2018-06-13T02:17:54.090Z,100654.00
2018-06-13T02:20:24.113Z,100639.00
2018-06-13T02:22:54.328Z,100646.00
2018-06-13T02:25:24.398Z,100645.00
2018-06-13T02:27:54.319Z,100648.00
2018-06-13T02:30:24.800Z,100646.00
2018-06-13T02:32:55.104Z,100651.00
2018-06-13T02:35:24.999Z,100650.00
2018-06-13T02:37:55.108Z,100650.00
2018-06-13T02:40:25.301Z,100650.00
2018-06-13T02:42:55.251Z,100654.00
2018-06-13T02:45:25.010Z,100656.00
2018-06-13T02:47:55.199Z,100655.00
2018-06-13T02:50:25.436Z,100654.00
2018-06-13T02:52:55.367Z,100657.00
2018-06-13T02:55:25.280Z,100653.00
2018-06-13T02:57:55.282Z,100655.00
2018-06-13T03:00:25.381Z,100654.00
2018-06-13T03:02:55.458Z,100653.00
2018-06-13T03:05:25.890Z,100654.00
2018-06-13T03:07:56.085Z,100657.00
2018-06-13T03:10:26.184Z,100658.00
2018-06-13T03:12:56.155Z,100658.00
2018-06-13T03:15:26.000Z,100658.00
2018-06-13T03:17:55.740Z,100658.00
2018-06-13T03:20:25.834Z,100661.00
2018-06-13T03:22:55.645Z,100659.00
2018-06-13T03:25:25.386Z,100660.00
2018-06-13T03:27:55.283Z,100660.00
2018-06-13T03:30:25.225Z,100665.00
2018-06-13T03:32:55.159Z,100671.00
2018-06-13T03:35:24.795Z,100663.00
2018-06-13T03:37:55.727Z,100670.00
2018-06-13T03:40:25.521Z,100673.00
2018-06-13T03:42:55.209Z,100676.00
2018-06-13T03:45:25.108Z,100678.00
2018-06-13T03:47:55.775Z,100679.00
2018-06-13T03:50:25.641Z,100683.00
2018-06-13T03:52:55.487Z,100680.00
2018-06-13T03:55:25.716Z,100675.00
2018-06-13T03:57:55.485Z,100675.00
2018-06-13T04:00:26.154Z,100684.00
2018-06-13T04:02:56.295Z,100675.00
2018-06-13T04:05:28.639Z,100681.00
2018-06-13T04:07:58.584Z,100683.00
2018-06-13T04:10:28.610Z,100681.00
2018-06-13T04:12:58.965Z,100679.00
2018-06-13T04:15:29.154Z,100684.00
2018-06-13T04:17:59.075Z,100687.00
2018-06-13T04:20:28.991Z,100675.00
2018-06-13T04:22:59.740Z,100676.00
2018-06-13T04:25:29.535Z,100677.00
2018-06-13T04:28:00.174Z,100675.00
2018-06-13T04:30:31.131Z,100676.00
2018-06-13T04:33:01.546Z,100674.00
2018-06-13T04:35:32.652Z,100669.00
2018-06-13T04:38:02.590Z,100667.00
2018-06-13T04:40:33.536Z,100672.00
2018-06-13T04:43:03.382Z,100677.00
2018-06-13T04:45:34.094Z,100681.00
2018-06-13T04:48:03.927Z,100680.00
2018-06-13T04:50:33.935Z,100685.00
2018-06-13T04:53:04.174Z,100681.00
2018-06-13T04:55:34.110Z,100684.00
2018-06-13T04:58:04.171Z,100684.00
2018-06-13T05:00:34.002Z,100682.00
2018-06-13T05:03:04.052Z,100682.00
2018-06-13T05:05:34.254Z,100683.00
2018-06-13T05:08:04.229Z,100687.00
2018-06-13T05:10:34.172Z,100689.00
2018-06-13T05:13:04.275Z,100688.00
2018-06-13T05:15:34.746Z,100686.00
2018-06-13T05:18:04.756Z,100685.00
2018-06-13T05:20:34.725Z,100683.00
2018-06-13T05:23:04.445Z,100684.00
2018-06-13T05:25:34.759Z,100683.00
2018-06-13T05:28:04.856Z,100688.00
2018-06-13T05:30:35.062Z,100690.00
2018-06-13T05:33:05.034Z,100698.00
2018-06-13T05:35:34.900Z,100697.00
2018-06-13T05:38:05.290Z,100699.00
2018-06-13T05:40:35.191Z,100702.00
2018-06-13T05:43:05.242Z,100704.00
2018-06-13T05:45:34.810Z,100703.00
2018-06-13T05:48:05.065Z,100707.00
2018-06-13T05:50:35.044Z,100708.00
2018-06-13T05:53:04.932Z,100719.00
2018-06-13T05:55:35.218Z,100718.00
2018-06-13T05:58:05.386Z,100718.00
2018-06-13T06:00:35.464Z,100719.00
2018-06-13T06:03:05.682Z,100721.00
2018-06-13T06:05:35.477Z,100719.00
2018-06-13T06:08:06.011Z,100723.00
2018-06-13T06:10:36.243Z,100723.00
2018-06-13T06:13:06.499Z,100725.00
2018-06-13T06:15:36.466Z,100718.00
2018-06-13T06:18:06.792Z,100722.00
2018-06-13T06:20:36.442Z,100725.00
2018-06-13T06:23:06.474Z,100724.00
2018-06-13T06:25:36.509Z,100727.00
2018-06-13T06:28:06.760Z,100735.00
2018-06-13T06:30:36.702Z,100730.00
2018-06-13T06:33:07.192Z,100729.00
2018-06-13T06:35:37.316Z,100725.00
2018-06-13T06:38:07.456Z,100721.00
2018-06-13T06:40:37.802Z,100720.00
2018-06-13T06:43:07.961Z,100728.00
2018-06-13T06:45:38.016Z,100732.00
2018-06-13T06:48:07.825Z,100732.00
2018-06-13T06:50:37.566Z,100732.00
2018-06-13T06:53:07.674Z,100732.00
2018-06-13T06:55:37.649Z,100734.00
2018-06-13T06:58:07.618Z,100736.00
2018-06-13T07:00:37.580Z,100731.00
2018-06-13T07:03:07.736Z,100734.00
2018-06-13T07:05:38.327Z,100745.00
2018-06-13T07:08:08.816Z,100747.00
2018-06-13T07:10:39.957Z,100748.00
2018-06-13T07:13:10.248Z,100749.00
2018-06-13T07:15:40.631Z,100749.00
2018-06-13T07:18:11.206Z,100748.00
2018-06-13T07:20:42.591Z,100747.00
2018-06-13T07:23:12.888Z,100750.00
2018-06-13T07:25:43.022Z,100750.00
2018-06-13T07:28:13.065Z,100750.00
2018-06-13T07:30:44.348Z,100752.00
2018-06-13T07:33:14.983Z,100756.00
2018-06-13T07:35:45.142Z,100754.00
2018-06-13T07:38:15.667Z,100746.00
2018-06-13T07:40:46.196Z,100752.00
2018-06-13T07:43:16.438Z,100758.00
2018-06-13T07:45:47.216Z,100754.00
2018-06-13T07:48:17.833Z,100754.00
2018-06-13T07:50:48.597Z,100748.00
2018-06-13T07:53:18.538Z,100752.00
2018-06-13T07:55:49.352Z,100749.00
2018-06-13T07:58:19.526Z,100750.00
2018-06-13T08:00:50.706Z,100751.00
2018-06-13T08:03:20.749Z,100751.00
2018-06-13T08:05:51.725Z,100752.00
2018-06-13T08:08:21.714Z,100752.00
2018-06-13T08:10:52.448Z,100749.00
2018-06-13T08:13:22.600Z,100753.00
2018-06-13T08:15:52.742Z,100762.00
2018-06-13T08:18:23.052Z,100764.00
2018-06-13T08:20:54.453Z,100769.00
2018-06-13T08:23:24.805Z,100768.00
2018-06-13T08:25:54.711Z,100770.00
2018-06-13T08:28:24.955Z,100777.00
2018-06-13T08:30:55.187Z,100776.00
2018-06-13T08:33:25.487Z,100782.00
2018-06-13T08:35:55.682Z,100782.00
2018-06-13T08:38:25.907Z,100781.00
2018-06-13T08:40:56.088Z,100784.00
2018-06-13T08:43:26.113Z,100782.00
2018-06-13T08:45:56.407Z,100781.00
2018-06-13T08:48:26.402Z,100776.00
2018-06-13T08:50:56.307Z,100783.00
2018-06-13T08:53:26.182Z,100781.00
2018-06-13T08:55:56.517Z,100784.00
2018-06-13T08:58:26.432Z,100783.00
2018-06-13T09:00:56.800Z,100784.00
2018-06-13T09:03:26.788Z,100777.00
2018-06-13T09:05:56.873Z,100783.00
2018-06-13T09:08:26.960Z,100780.00
2018-06-13T09:10:57.101Z,100780.00
2018-06-13T09:13:27.107Z,100785.00
2018-06-13T09:15:57.412Z,100787.00
2018-06-13T09:18:27.414Z,100784.00
2018-06-13T09:20:57.326Z,100781.00
2018-06-13T09:23:27.336Z,100790.00
2018-06-13T09:25:57.482Z,100788.00
2018-06-13T09:28:27.620Z,100784.00
2018-06-13T09:30:57.416Z,100791.00
2018-06-13T09:33:27.969Z,100784.00
2018-06-13T09:35:58.408Z,100788.00
2018-06-13T09:38:28.689Z,100792.00
2018-06-13T09:40:58.638Z,100790.00
2018-06-13T09:43:28.686Z,100790.00
2018-06-13T09:46:03.399Z,100794.00
2018-06-13T09:48:29.132Z,100794.00
2018-06-13T09:50:59.272Z,100795.00
2018-06-13T09:53:29.497Z,100789.00
2018-06-13T09:55:59.676Z,100794.00
2018-06-13T09:58:33.882Z,100780.00
2018-06-13T10:01:08.892Z,100784.00
2018-06-13T10:03:39.262Z,100780.00
2018-06-13T10:06:09.325Z,100787.00
2018-06-13T10:08:39.543Z,100788.00
2018-06-13T10:11:09.818Z,100788.00
2018-06-13T10:13:39.852Z,100787.00
2018-06-13T10:16:09.812Z,100786.00
2018-06-13T10:18:39.654Z,100780.00
2018-06-13T10:21:10.113Z,100753.00
2018-06-13T10:23:40.452Z,100778.00
2018-06-13T10:26:11.200Z,100776.00
2018-06-13T10:28:41.249Z,100782.00
2018-06-13T10:31:11.471Z,100785.00
2018-06-13T10:33:41.745Z,100788.00
2018-06-13T10:36:11.783Z,100790.00
2018-06-13T10:38:41.913Z,100789.00
2018-06-13T10:41:12.139Z,100791.00
2018-06-13T10:43:42.386Z,100795.00
2018-06-13T10:46:12.451Z,100783.00
2018-06-13T10:48:42.601Z,100796.00
2018-06-13T10:51:12.973Z,100786.00
2018-06-13T10:53:42.957Z,100787.00
2018-06-13T10:56:13.083Z,100787.00
2018-06-13T10:58:43.062Z,100782.00
2018-06-13T11:01:12.986Z,100783.00
2018-06-13T11:03:42.856Z,100789.00
2018-06-13T11:06:13.712Z,100797.00
2018-06-13T11:08:44.137Z,100802.00
2018-06-13T11:11:14.262Z,100801.00
2018-06-13T11:13:44.478Z,100804.00
2018-06-13T11:16:14.692Z,100801.00
2018-06-13T11:18:44.715Z,100801.00
2018-06-13T11:21:15.188Z,100806.00
2018-06-13T11:23:45.286Z,100805.00
2018-06-13T11:26:15.499Z,100812.00
2018-06-13T11:28:45.926Z,100815.00
2018-06-13T11:31:16.026Z,100817.00
2018-06-13T11:33:46.079Z,100811.00
2018-06-13T11:36:16.250Z,100804.00
2018-06-13T11:38:46.672Z,100802.00
2018-06-13T11:41:16.929Z,100804.00
2018-06-13T11:43:46.976Z,100796.00
2018-06-13T11:46:17.232Z,100802.00
2018-06-13T11:48:47.313Z,100801.00
2018-06-13T11:51:17.582Z,100803.00
2018-06-13T11:53:47.609Z,100802.00
2018-06-13T11:56:17.884Z,100793.00
2018-06-13T11:58:48.054Z,100791.00
2018-06-13T12:01:18.237Z,100797.00
2018-06-13T12:03:48.641Z,100790.00
2018-06-13T12:06:18.743Z,100789.00
2018-06-13T12:08:49.072Z,100781.00
2018-06-13T12:11:19.224Z,100784.00
2018-06-13T12:13:49.344Z,100786.00
2018-06-13T12:16:19.393Z,100778.00
2018-06-13T12:18:49.624Z,100780.00
2018-06-13T12:21:19.968Z,100789.00
2018-06-13T12:23:50.255Z,100775.00
2018-06-13T12:26:20.321Z,100778.00
2018-06-13T12:28:50.517Z,100774.00
2018-06-13T12:31:20.554Z,100773.00
2018-06-13T12:33:50.852Z,100773.00
2018-06-13T12:36:21.096Z,100770.00
2018-06-13T12:38:51.303Z,100774.00
2018-06-13T12:41:21.454Z,100780.00
2018-06-13T12:43:51.198Z,100765.00
2018-06-13T12:46:21.367Z,100780.00
2018-06-13T12:48:51.128Z,100785.00
2018-06-13T12:51:21.185Z,100776.00
2018-06-13T12:53:51.667Z,100778.00
2018-06-13T12:56:22.614Z,100792.00
2018-06-13T12:58:52.953Z,100776.00
2018-06-13T13:01:23.164Z,100770.00
2018-06-13T13:03:53.368Z,100781.00
2018-06-13T13:06:23.244Z,100788.00
2018-06-13T13:08:53.254Z,100780.00
2018-06-13T13:11:23.390Z,100785.00
2018-06-13T13:13:54.167Z,100782.00
2018-06-13T13:16:24.299Z,100781.00
2018-06-13T13:18:54.357Z,100782.00
2018-06-13T13:21:24.487Z,100778.00
2018-06-13T13:23:54.946Z,100782.00
2018-06-13T13:26:25.212Z,100781.00
2018-06-13T13:28:55.610Z,100782.00
2018-06-13T13:31:25.875Z,100779.00
2018-06-13T13:33:55.936Z,100779.00
2018-06-13T13:36:26.057Z,100775.00
2018-06-13T13:38:56.254Z,100773.00
2018-06-13T13:41:26.290Z,100771.00
2018-06-13T13:43:56.592Z,100776.00
2018-06-13T13:46:26.722Z,100774.00
2018-06-13T13:48:56.894Z,100779.00
2018-06-13T13:51:27.138Z,100782.00
2018-06-13T13:53:57.212Z,100779.00
2018-06-13T13:56:27.493Z,100776.00
2018-06-13T13:58:57.731Z,100779.00
2018-06-13T14:01:27.828Z,100782.00
2018-06-13T14:03:58.068Z,100778.00
2018-06-13T14:06:28.195Z,100775.00
2018-06-13T14:08:58.297Z,100778.00
2018-06-13T14:11:28.620Z,100777.00
2018-06-13T14:13:58.657Z,100776.00
2018-06-13T14:16:28.994Z,100772.00
2018-06-13T14:18:59.319Z,100769.00
2018-06-13T14:21:30.173Z,100762.00
2018-06-13T14:24:00.469Z,100763.00
2018-06-13T14:26:30.773Z,100765.00
2018-06-13T14:29:00.885Z,100763.00
2018-06-13T14:31:31.218Z,100764.00
2018-06-13T14:34:01.238Z,100761.00
2018-06-13T14:36:31.718Z,100758.00
2018-06-13T14:39:02.091Z,100769.00
2018-06-13T14:41:32.282Z,100775.00
2018-06-13T14:44:03.129Z,100768.00
2018-06-13T14:46:33.505Z,100763.00
2018-06-13T14:49:03.218Z,100777.00
2018-06-13T14:51:33.742Z,100773.00
2018-06-13T14:54:03.872Z,100778.00
2018-06-13T14:56:34.550Z,100776.00
2018-06-13T14:59:04.698Z,100775.00
2018-06-13T15:01:34.911Z,100772.00
2018-06-13T15:04:05.583Z,100769.00
2018-06-13T15:06:35.754Z,100764.00
2018-06-13T15:09:09.651Z,100772.00
2018-06-13T15:11:40.648Z,100769.00
2018-06-13T15:14:11.211Z,100767.00
2018-06-13T15:16:41.339Z,100765.00
2018-06-13T15:19:11.670Z,100763.00
2018-06-13T15:21:41.806Z,100763.00
2018-06-13T15:24:12.018Z,100762.00
2018-06-13T15:26:42.225Z,100765.00
2018-06-13T15:29:12.654Z,100764.00
2018-06-13T15:31:42.697Z,100765.00
2018-06-13T15:34:13.003Z,100769.00
2018-06-13T15:36:43.148Z,100768.00
2018-06-13T15:39:15.085Z,100766.00
2018-06-13T15:41:45.890Z,100767.00
2018-06-13T15:44:16.635Z,100759.00
2018-06-13T15:46:46.807Z,100759.00
2018-06-13T15:49:16.946Z,100766.00
2018-06-13T15:51:47.093Z,100768.00
2018-06-13T15:54:18.100Z,100764.00
2018-06-13T15:56:48.309Z,100772.00
2018-06-13T15:59:18.578Z,100768.00
2018-06-13T16:01:49.053Z,100771.00
2018-06-13T16:04:19.564Z,100772.00
2018-06-13T16:06:50.246Z,100780.00
2018-06-13T16:09:20.474Z,100780.00
2018-06-13T16:11:50.753Z,100787.00
2018-06-13T16:14:21.128Z,100792.00
2018-06-13T16:16:52.086Z,100792.00
2018-06-13T16:19:22.305Z,100792.00
2018-06-13T16:21:53.011Z,100798.00
2018-06-13T16:24:23.520Z,100799.00
2018-06-13T16:26:53.913Z,100804.00
2018-06-13T16:29:25.168Z,100802.00
2018-06-13T16:31:55.191Z,100809.00
2018-06-13T16:34:25.562Z,100812.00
2018-06-13T16:36:56.097Z,100818.00
2018-06-13T16:39:26.183Z,100819.00
2018-06-13T16:41:56.596Z,100810.00
2018-06-13T16:44:27.010Z,100806.00
2018-06-13T16:46:57.261Z,100810.00
2018-06-13T16:49:27.318Z,100809.00
2018-06-13T16:51:58.641Z,100804.00
2018-06-13T16:54:39.084Z,100804.00
2018-06-13T16:57:09.630Z,100814.00
2018-06-13T16:59:39.840Z,100812.00
2018-06-13T17:02:10.101Z,100821.00
2018-06-13T17:04:40.544Z,100829.00
2018-06-13T17:07:10.807Z,100826.00
2018-06-13T17:09:40.906Z,100829.00
2018-06-13T17:12:11.130Z,100829.00
2018-06-13T17:14:41.629Z,100822.00
2018-06-13T17:17:12.390Z,100831.00
2018-06-13T17:19:42.701Z,100830.00
2018-06-13T17:22:13.092Z,100834.00
2018-06-13T17:24:43.084Z,100835.00
2018-06-13T17:27:13.208Z,100835.00
2018-06-13T17:29:43.268Z,100843.00
2018-06-13T17:32:13.590Z,100849.00
2018-06-13T17:34:43.633Z,100844.00
2018-06-13T17:37:13.859Z,100848.00
2018-06-13T17:39:43.984Z,100851.00
2018-06-13T17:42:14.224Z,100858.00
2018-06-13T17:44:44.520Z,100858.00
2018-06-13T17:47:15.731Z,100865.00
2018-06-13T17:49:46.156Z,100864.00
2018-06-13T17:52:16.336Z,100875.00
2018-06-13T17:54:46.662Z,100874.00
2018-06-13T17:57:17.383Z,100877.00
2018-06-13T17:59:48.527Z,100880.00
2018-06-13T18:02:19.386Z,100881.00
2018-06-13T18:04:49.854Z,100870.00
2018-06-13T18:07:20.651Z,100877.00
2018-06-13T18:09:51.158Z,100886.00
2018-06-13T18:12:21.536Z,100881.00
2018-06-13T18:14:51.910Z,100868.00
2018-06-13T18:17:22.313Z,100867.00
2018-06-13T18:19:53.115Z,100860.00
2018-06-13T18:22:23.309Z,100861.00
2018-06-13T18:24:53.495Z,100866.00
2018-06-13T18:27:23.755Z,100864.00
2018-06-13T18:29:53.910Z,100867.00
2018-06-13T18:32:24.340Z,100871.00
2018-06-13T18:34:54.728Z,100863.00
2018-06-13T18:37:25.328Z,100862.00
2018-06-13T18:39:55.738Z,100869.00
2018-06-13T18:42:25.934Z,100866.00
2018-06-13T18:44:56.069Z,100871.00
2018-06-13T18:47:26.108Z,100865.00
2018-06-13T18:49:56.438Z,100864.00
2018-06-13T18:52:26.705Z,100852.00
2018-06-13T18:54:56.739Z,100853.00
2018-06-13T18:57:27.012Z,100851.00
2018-06-13T18:59:57.151Z,100856.00
2018-06-13T19:02:27.539Z,100852.00
2018-06-13T19:04:58.185Z,100851.00
2018-06-13T19:07:28.598Z,100849.00
2018-06-13T19:09:59.238Z,100849.00
2018-06-13T19:12:29.485Z,100852.00
2018-06-13T19:14:59.567Z,100856.00
2018-06-13T19:17:29.961Z,100860.00
2018-06-13T19:20:00.137Z,100857.00
2018-06-13T19:22:30.419Z,100860.00
2018-06-13T19:25:00.643Z,100861.00
2018-06-13T19:27:30.823Z,100861.00
2018-06-13T19:30:01.517Z,100862.00
2018-06-13T19:32:31.674Z,100866.00
2018-06-13T19:35:01.829Z,100868.00
2018-06-13T19:37:32.157Z,100870.00
2018-06-13T19:40:02.329Z,100876.00
2018-06-13T19:42:32.790Z,100869.00
2018-06-13T19:45:02.763Z,100869.00
2018-06-13T19:47:38.203Z,100871.00
2018-06-13T19:50:08.769Z,100874.00
2018-06-13T19:52:44.154Z,100873.00
2018-06-13T19:55:19.425Z,100880.00
2018-06-13T19:57:49.814Z,100888.00
2018-06-13T20:00:20.946Z,100888.00
2018-06-13T20:02:56.320Z,100892.00
2018-06-13T20:05:31.510Z,100878.00
2018-06-13T20:08:01.650Z,100892.00
2018-06-13T20:10:31.822Z,100897.00
2018-06-13T20:13:07.025Z,100896.00
2018-06-13T20:15:42.128Z,100902.00
2018-06-13T20:18:17.208Z,100909.00
2018-06-13T20:20:48.126Z,100913.00
2018-06-13T20:23:18.309Z,100911.00
2018-06-13T20:25:54.122Z,100909.00
2018-06-13T20:28:29.098Z,100911.00
2018-06-13T20:31:03.977Z,100911.00
2018-06-13T20:33:34.098Z,100910.00
2018-06-13T20:36:04.316Z,100919.00
2018-06-13T20:38:34.423Z,100919.00
2018-06-13T20:41:04.293Z,100923.00
2018-06-13T20:43:34.664Z,100929.00
2018-06-13T20:46:04.740Z,100931.00
2018-06-13T20:48:34.873Z,100931.00
2018-06-13T20:51:05.245Z,100929.00
2018-06-13T20:53:35.479Z,100930.00
2018-06-13T20:56:05.680Z,100932.00
2018-06-13T20:58:35.835Z,100924.00
2018-06-13T21:01:06.096Z,100925.00
2018-06-13T21:03:36.394Z,100929.00
2018-06-13T21:06:06.523Z,100927.00
2018-06-13T21:08:36.648Z,100924.00
2018-06-13T21:11:06.762Z,100924.00
2018-06-13T21:13:37.055Z,100917.00
2018-06-13T21:16:07.404Z,100916.00
2018-06-13T21:18:37.360Z,100924.00
2018-06-13T21:21:07.629Z,100923.00
2018-06-13T21:23:37.774Z,100923.00
2018-06-13T21:26:07.943Z,100927.00
2018-06-13T21:28:38.120Z,100936.00
2018-06-13T21:31:08.561Z,100929.00
2018-06-13T21:33:38.646Z,100925.00
2018-06-13T21:36:08.670Z,100922.00
2018-06-13T21:38:38.215Z,100920.00
2018-06-13T21:41:08.464Z,100922.00
2018-06-13T21:43:38.463Z,100919.00
2018-06-13T21:46:08.524Z,100910.00
2018-06-13T21:48:38.735Z,100906.00
2018-06-13T21:51:08.928Z,100899.00
2018-06-13T21:53:39.113Z,100900.00
2018-06-13T21:56:09.203Z,100898.00
2018-06-13T21:58:39.324Z,100901.00
2018-06-13T22:01:09.536Z,100894.00
2018-06-13T22:03:39.761Z,100891.00
2018-06-13T22:06:09.980Z,100886.00
2018-06-13T22:08:40.288Z,100894.00
2018-06-13T22:11:10.551Z,100892.00
2018-06-13T22:13:40.720Z,100893.00
2018-06-13T22:16:10.862Z,100900.00
2018-06-13T22:18:40.874Z,100902.00
2018-06-13T22:21:11.312Z,100902.00
2018-06-13T22:23:41.076Z,100901.00
2018-06-13T22:26:11.584Z,100909.00
2018-06-13T22:28:41.358Z,100911.00
2018-06-13T22:31:11.417Z,100905.00
2018-06-13T22:33:41.354Z,100904.00
2018-06-13T22:36:11.226Z,100911.00
2018-06-13T22:38:41.266Z,100903.00
2018-06-13T22:41:11.255Z,100909.00
2018-06-13T22:43:41.230Z,100904.00
2018-06-13T22:46:11.215Z,100904.00
2018-06-13T22:48:41.475Z,100904.00
2018-06-13T22:51:11.475Z,100905.00
2018-06-13T22:53:41.751Z,100907.00
2018-06-13T22:56:11.962Z,100896.00
2018-06-13T22:58:42.206Z,100896.00
2018-06-13T23:01:13.239Z,100894.00
2018-06-13T23:03:43.600Z,100891.00
2018-06-13T23:06:13.877Z,100890.00
2018-06-13T23:08:44.100Z,100899.00
2018-06-13T23:11:14.235Z,100898.00
2018-06-13T23:13:44.137Z,100902.00
2018-06-13T23:16:14.060Z,100902.00
2018-06-13T23:18:44.386Z,100902.00
2018-06-13T23:21:14.551Z,100905.00
2018-06-13T23:23:45.031Z,100899.00
2018-06-13T23:26:14.890Z,100902.00
2018-06-13T23:28:44.692Z,100902.00
2018-06-13T23:31:14.675Z,100897.00
2018-06-13T23:33:45.056Z,100898.00
2018-06-13T23:36:14.986Z,100896.00
2018-06-13T23:38:44.971Z,100900.00
2018-06-13T23:41:14.866Z,100897.00
2018-06-13T23:43:44.620Z,100902.00
2018-06-13T23:46:14.840Z,100902.00
2018-06-13T23:48:45.431Z,100900.00
2018-06-13T23:51:15.467Z,100902.00
2018-06-13T23:53:45.537Z,100900.00
2018-06-13T23:56:15.841Z,100897.00
2018-06-13T23:58:45.969Z,100892.00
